createdAt,value
2022-09-02T00:01:28.602Z,102238.56
2022-09-02T00:06:33.733Z,102250.56
2022-09-02T00:11:37.275Z,102233.06
2022-09-02T00:16:51.498Z,102228.41
2022-09-02T00:21:54.815Z,102231.19
2022-09-02T00:26:57.052Z,102232.59
2022-09-02T00:32:01.488Z,102227.41
2022-09-02T00:37:09.249Z,102225.44
2022-09-02T00:42:11.498Z,102229.53
2022-09-02T00:47:15.406Z,102228.41
2022-09-02T00:52:26.311Z,102228.78
2022-09-02T00:57:32.595Z,102222.06
2022-09-02T01:02:34.698Z,102224.31
2022-09-02T01:07:57.060Z,102226.94
2022-09-02T01:13:10.951Z,102220.75
2022-09-02T01:18:24.037Z,102223.97
2022-09-02T01:23:34.670Z,102206.00
2022-09-02T01:28:37.514Z,102201.81
2022-09-02T01:33:39.318Z,102204.22
2022-09-02T01:38:41.084Z,102197.88
2022-09-02T01:43:45.770Z,102201.97
2022-09-02T01:48:48.781Z,102186.34
2022-09-02T01:53:50.887Z,102175.25
2022-09-02T01:58:52.800Z,102186.13
2022-09-02T02:03:55.132Z,102181.09
2022-09-02T02:09:02.377Z,102185.16
2022-09-02T02:14:08.010Z,102178.63
2022-09-02T02:19:12.774Z,102170.44
2022-09-02T02:24:15.122Z,102170.16
2022-09-02T02:29:18.171Z,102171.53
2022-09-02T02:34:22.333Z,102182.00
2022-09-02T02:39:29.742Z,102174.63
2022-09-02T02:44:35.420Z,102169.25
2022-09-02T02:49:39.426Z,102162.53
2022-09-02T02:54:46.083Z,102161.22
2022-09-02T02:59:48.869Z,102157.38
2022-09-02T03:04:52.437Z,102158.78
2022-09-02T03:09:54.258Z,102152.19
2022-09-02T03:14:56.074Z,102159.13
2022-09-02T03:20:02.658Z,102150.75
2022-09-02T03:25:10.301Z,102145.72
2022-09-02T03:30:16.046Z,102144.56
2022-09-02T03:35:23.646Z,102146.97
2022-09-02T03:40:28.584Z,102141.75
2022-09-02T03:45:32.950Z,102135.03
2022-09-02T03:50:42.160Z,102137.88
2022-09-02T03:55:52.361Z,102133.69
2022-09-02T04:00:55.980Z,102135.94
2022-09-02T04:05:59.707Z,102133.41
2022-09-02T04:11:10.307Z,102136.63
2022-09-02T04:16:18.195Z,102134.47
2022-09-02T04:21:20.165Z,102130.59
2022-09-02T04:26:23.091Z,102126.59
2022-09-02T04:31:30.982Z,102128.97
2022-09-02T04:36:34.833Z,102129.28
2022-09-02T04:41:43.242Z,102128.16
2022-09-02T04:46:51.062Z,102128.19
2022-09-02T04:51:57.026Z,102134.06
2022-09-02T04:57:00.474Z,102131.78
2022-09-02T05:02:07.230Z,102127.91
2022-09-02T05:07:11.967Z,102127.91
2022-09-02T05:12:21.631Z,102125.22
2022-09-02T05:17:31.896Z,102132.97
2022-09-02T05:22:39.755Z,102134.59
2022-09-02T05:27:43.100Z,102133.91
2022-09-02T05:32:47.308Z,102133.38
2022-09-02T05:37:50.409Z,102124.91
2022-09-02T05:42:54.650Z,102132.47
2022-09-02T05:47:56.472Z,102130.94
2022-09-02T05:53:01.758Z,102126.50
2022-09-02T05:58:10.352Z,102136.75
2022-09-02T06:03:18.456Z,102131.63
2022-09-02T06:08:20.514Z,102136.34
2022-09-02T06:13:22.824Z,102120.13
2022-09-02T06:18:28.949Z,102131.84
2022-09-02T06:23:35.758Z,102119.16
2022-09-02T06:28:42.585Z,102124.66
2022-09-02T06:33:46.459Z,102125.91
2022-09-02T06:38:52.889Z,102121.94
2022-09-02T06:44:02.747Z,102121.88
2022-09-02T06:49:08.383Z,102123.72
2022-09-02T06:54:17.712Z,102124.78
2022-09-02T06:59:24.193Z,102119.94
2022-09-02T07:04:55.673Z,102113.06
2022-09-02T07:10:04.997Z,102109.72
2022-09-02T07:15:10.564Z,102110.06
2022-09-02T07:20:17.957Z,102108.75
2022-09-02T07:25:27.540Z,102114.31
2022-09-02T07:30:32.120Z,102104.03
2022-09-02T07:35:44.552Z,102104.75
2022-09-02T07:40:50.850Z,102106.13
2022-09-02T07:46:04.215Z,102096.91
2022-09-02T07:51:09.564Z,102103.09
2022-09-02T07:56:14.958Z,102103.22
2022-09-02T08:01:23.643Z,102093.31
2022-09-02T08:06:34.452Z,102099.69
2022-09-02T08:11:40.379Z,102100.78
2022-09-02T08:16:46.135Z,102108.16
2022-09-02T08:21:51.058Z,102102.44
2022-09-02T08:26:53.282Z,102095.41
2022-09-02T08:31:55.293Z,102091.75
2022-09-02T08:37:00.353Z,102094.31
2022-09-02T08:42:15.619Z,102100.81
2022-09-02T08:47:24.782Z,102097.72
2022-09-02T08:52:36.607Z,102094.41
2022-09-02T08:57:44.347Z,102084.63
2022-09-02T09:03:15.261Z,102087.81
2022-09-02T09:08:41.904Z,102081.72
2022-09-02T09:14:02.919Z,102071.66
2022-09-02T09:19:26.796Z,102060.97
2022-09-02T09:24:32.104Z,102053.81
2022-09-02T09:29:36.313Z,102060.91
2022-09-02T09:34:54.112Z,102039.91
2022-09-02T09:40:00.877Z,102033.53
2022-09-02T09:45:38.530Z,102022.75
2022-09-02T09:50:46.117Z,102024.09
2022-09-02T09:56:22.605Z,102015.41
2022-09-02T10:01:33.003Z,102017.78
2022-09-02T10:06:43.585Z,102016.44
2022-09-02T10:12:05.349Z,102017.31
2022-09-02T10:17:16.509Z,102009.59
2022-09-02T10:22:39.185Z,101999.63
2022-09-02T10:28:09.664Z,101992.66
2022-09-02T10:33:22.671Z,101992.59
2022-09-02T10:38:34.289Z,101986.53
2022-09-02T10:43:42.149Z,101976.88
2022-09-02T10:49:07.327Z,101977.06
2022-09-02T10:54:23.430Z,101972.69
2022-09-02T10:59:40.289Z,101962.88
2022-09-02T11:04:50.607Z,101965.66
2022-09-02T11:10:11.113Z,101958.22
2022-09-02T11:15:19.533Z,101947.53
2022-09-02T11:20:45.877Z,101943.25
2022-09-02T11:26:00.433Z,101936.25
2022-09-02T11:31:28.205Z,101938.09
2022-09-02T11:36:38.171Z,101936.91
2022-09-02T11:42:05.126Z,101923.13
2022-09-02T11:47:21.161Z,101917.25
2022-09-02T11:52:27.335Z,101913.63
2022-09-02T11:57:35.016Z,101913.94
2022-09-02T12:02:45.682Z,101909.69
2022-09-02T12:07:50.709Z,101912.44
2022-09-02T12:13:00.421Z,101907.34
2022-09-02T12:18:07.469Z,101899.28
2022-09-02T12:23:11.373Z,101899.25
2022-09-02T12:28:27.289Z,101886.94
2022-09-02T12:33:36.446Z,101883.91
2022-09-02T12:38:41.063Z,101876.81
2022-09-02T12:44:05.520Z,101862.22
2022-09-02T12:49:26.458Z,101871.19
2022-09-02T12:54:38.747Z,101868.03
2022-09-02T12:59:41.753Z,101855.66
2022-09-02T13:05:17.947Z,101850.44
2022-09-02T13:10:44.979Z,101848.72
2022-09-02T13:16:05.575Z,101851.16
2022-09-02T13:21:22.292Z,101831.88
2022-09-02T13:26:50.214Z,101823.66
2022-09-02T13:32:05.142Z,101825.59
2022-09-02T13:37:32.380Z,101818.66
2022-09-02T13:42:37.274Z,101816.22
2022-09-02T13:47:48.429Z,101807.88
2022-09-02T13:58:38.641Z,101803.72
2022-09-02T14:03:44.965Z,101800.56
2022-09-02T14:08:46.939Z,101796.28
2022-09-02T14:13:50.045Z,101788.19
2022-09-02T14:19:15.209Z,101782.56
2022-09-02T14:24:26.330Z,101784.91
2022-09-02T14:29:32.157Z,101764.78
2022-09-02T14:34:37.220Z,101769.31
2022-09-02T14:39:54.959Z,101766.19
2022-09-02T14:44:59.431Z,101758.81
2022-09-02T14:50:04.556Z,101761.69
2022-09-02T14:55:08.801Z,101753.44
2022-09-02T15:00:14.972Z,101749.31
2022-09-02T15:05:19.540Z,101749.25
2022-09-02T15:10:21.684Z,101738.47
2022-09-02T15:15:24.654Z,101751.00
2022-09-02T15:20:29.082Z,101748.34
2022-09-02T15:25:34.204Z,101734.88
2022-09-02T15:30:40.783Z,101738.06
2022-09-02T15:35:47.399Z,101724.50
2022-09-02T15:40:49.201Z,101727.91
2022-09-02T15:45:53.814Z,101730.28
2022-09-02T15:50:58.055Z,101720.31
2022-09-02T15:56:04.547Z,101723.94
2022-09-02T16:01:09.379Z,101728.66
2022-09-02T16:06:13.303Z,101718.34
2022-09-02T16:11:15.100Z,101708.47
2022-09-02T16:16:20.302Z,101704.28
2022-09-02T16:21:25.247Z,101699.22
2022-09-02T16:26:34.060Z,101696.19
2022-09-02T16:31:41.209Z,101689.66
2022-09-02T16:36:48.155Z,101681.63
2022-09-02T16:41:55.836Z,101680.72
2022-09-02T16:46:57.657Z,101673.88
2022-09-02T16:52:01.514Z,101670.13
2022-09-02T16:57:04.685Z,101669.28
2022-09-02T17:02:06.927Z,101664.88
2022-09-02T17:07:09.566Z,101660.13
2022-09-02T17:12:12.526Z,101660.09
2022-09-02T17:17:17.283Z,101651.81
2022-09-02T17:22:20.235Z,101648.91
2022-09-02T17:27:21.961Z,101656.75
2022-09-02T17:32:26.050Z,101655.03
2022-09-02T17:37:30.988Z,101661.47
2022-09-02T17:42:33.931Z,101662.09
2022-09-02T17:47:40.338Z,101668.72
2022-09-02T17:52:45.446Z,101663.09
2022-09-02T17:57:51.088Z,101670.91
2022-09-02T18:03:18.041Z,101671.91
2022-09-02T18:09:02.271Z,101674.66
2022-09-02T18:14:16.563Z,101673.94
2022-09-02T18:19:27.588Z,101671.91
2022-09-02T18:24:37.565Z,101672.28
2022-09-02T18:29:56.500Z,101674.78
2022-09-02T18:35:32.352Z,101673.59
2022-09-02T18:40:54.568Z,101676.72
2022-09-02T18:46:01.604Z,101676.69
2022-09-02T18:51:24.441Z,101695.25
2022-09-02T18:56:31.391Z,101695.63
2022-09-02T19:01:42.559Z,101696.84
2022-09-02T19:06:44.414Z,101709.09
2022-09-02T19:11:51.838Z,101701.50
2022-09-02T19:16:58.094Z,101713.03
2022-09-02T19:22:04.912Z,101709.84
2022-09-02T19:27:09.778Z,101708.28
2022-09-02T19:32:15.227Z,101712.81
2022-09-02T19:37:17.277Z,101716.13
2022-09-02T19:42:24.201Z,101715.56
2022-09-02T19:53:00.993Z,101728.13
2022-09-02T19:58:05.242Z,101734.59
2022-09-02T20:03:11.474Z,101736.34
2022-09-02T20:08:16.914Z,101739.84
2022-09-02T20:13:21.026Z,101739.72
2022-09-02T20:18:28.520Z,101736.69
2022-09-02T20:23:32.769Z,101724.06
2022-09-02T20:28:45.014Z,101743.97
2022-09-02T20:34:03.668Z,101744.25
2022-09-02T20:39:14.637Z,101736.66
2022-09-02T20:44:19.107Z,101743.88
2022-09-02T20:49:55.539Z,101742.53
2022-09-02T20:55:22.089Z,101747.88
2022-09-02T21:00:30.903Z,101745.50
2022-09-02T21:05:37.805Z,101740.81
2022-09-02T21:10:45.838Z,101740.00
2022-09-02T21:16:00.219Z,101744.22
2022-09-02T21:21:31.769Z,101754.53
2022-09-02T21:26:48.280Z,101742.28
2022-09-02T21:32:01.564Z,101739.84
2022-09-02T21:37:04.301Z,101750.81
2022-09-02T21:42:19.575Z,101736.66
2022-09-02T21:47:27.356Z,101733.19
2022-09-02T21:52:49.612Z,101739.25
2022-09-02T21:57:57.096Z,101738.69
2022-09-02T22:03:19.961Z,101741.25
2022-09-02T22:08:33.656Z,101740.22
2022-09-02T22:13:41.926Z,101741.06
2022-09-02T22:18:54.290Z,101737.13
2022-09-02T22:23:56.284Z,101736.34
2022-09-02T22:29:03.896Z,101738.84
2022-09-02T22:34:09.301Z,101734.72
2022-09-02T22:39:16.692Z,101742.47
2022-09-02T22:45:01.156Z,101746.44
2022-09-02T22:50:24.199Z,101741.69
2022-09-02T22:55:33.515Z,101729.63
2022-09-02T23:00:40.892Z,101739.66
2022-09-02T23:06:08.025Z,101728.22
2022-09-02T23:11:47.335Z,101729.47
2022-09-02T23:17:05.514Z,101723.81
2022-09-02T23:22:22.017Z,101724.06
2022-09-02T23:27:53.239Z,101720.09
2022-09-02T23:33:03.536Z,101720.31
2022-09-02T23:38:28.497Z,101711.78
2022-09-02T23:43:33.698Z,101713.22
2022-09-02T23:48:52.125Z,101709.50
2022-09-02T23:54:10.891Z,101697.84
2022-09-02T23:59:34.532Z,101698.44
